Create Custom Reports and Graphics: Custom Report

Bell Hill West (BHR)

Current Conditions

3/25/19 3:00 AM (-07:00)
Updated Every 15 Minutes
Temp 50.3 °F   15.8
RH 71 %   29
Dew Pt 41.3 °F   6.7
Wet Bulb 46.2 °F   11.6
Wind Dir E | 85 °
Wind Spd 5.7 mph   3.6
Wind Gust 9.6 mph   6.0
Solar Rad 0 W/m2   0
Daily Min Temp 49.4 °F   15.2
Daily Max Temp 50.9 °F   14.1
Latest Rain 0.00 In
Daily Rain 0.00 In

Bell Hill West

Last 24 Hours

Hourly Data | America/Los_Angeles
as of 3/25/19 3:10 AM PDT
Date Time Temp (°F) RH (%) Dew Pt (°F) Wet Bulb (°F) Leaf Wet (mins) Wind Dir (°) Wind Spd (mph) Wind Gust (mph) Solar Rad (W/m2) Latest Rain (In) Daily Rain (In) Daily Min Temp (°F) Daily Max Temp (°F) Day
3/25/19 0300 50.6 70 41.4 46.2 0.0 E | 92 4.9 10.3 0 0.00 0.00 49.4 50.9 3/25/19
3/25/19 0200 50.2 71 41.1 46.1 0.0 SE | 140 1.7 6.4 0 0.00 0.00 49.4 50.6 3/25/19
3/25/19 0100 50.0 73 41.5 46.3 0.1 SSE | 166 2.0 5.4 0 0.00 0.00 33.2 61.3 3/24/19
3/25/19 0000 50.7 69 41.9 46.2 0.1 E | 93 2.6 7.4 0 0.00 0.00 33.2 61.3 3/24/19
3/24/19 2300 50.6 69 40.9 46.2 0.1 ESE | 120 2.3 7.1 0 0.00 0.00 33.2 61.3 3/24/19
3/24/19 2200 51.9 66 40.8 46.8 0.1 ESE | 103 3.0 8.1 0 0.00 0.00 33.2 61.3 3/24/19
3/24/19 2100 52.0 61 40.3 45.9 0.1 SE | 140 0.5 3.6 0 0.00 0.00 33.2 61.3 3/24/19
3/24/19 2000 53.3 54 38.3 45.8 0.1 SE | 143 2.6 7.6 7 0.00 0.00 33.2 61.3 3/24/19
3/24/19 1900 55.4 50 36.8 46.7 0.1 S | 178 4.3 9.3 66 0.00 0.00 33.2 61.3 3/24/19
3/24/19 1800 57.2 51 37.1 48.3 0.1 S | 190 7.9 14.5 149 0.00 0.00 33.2 61.3 3/24/19
3/24/19 1700 59.9 51 42.8 50.5 0.1 ESE | 113 6.3 15.5 515 0.00 0.00 33.2 61.3 3/24/19
3/24/19 1600 58.8 51 41.4 49.7 0.1 ENE | 77 7.5 15.0 447 0.00 0.00 33.2 60.2 3/24/19
3/24/19 1500 59.4 50 40.5 49.9 0.1 E | 93 5.6 13.0 505 0.00 0.00 33.2 60.2 3/24/19
3/24/19 1400 58.9 49 40.1 49.2 0.1 E | 90 5.8 13.3 675 0.00 0.00 33.2 59.9 3/24/19
3/24/19 1300 56.4 57 39.3 49.0 0.0 ENE | 74 7.2 14.6 586 0.00 0.00 33.2 57.8 3/24/19
3/24/19 1200 53.7 67 42.7 48.7 0.0 NE | 35 5.0 10.1 601 0.00 0.00 33.2 55.9 3/24/19
3/24/19 1100 49.8 78 43.4 46.9 0.0 N | 4 3.4 7.6 468 0.00 0.00 33.2 51.4 3/24/19
3/24/19 1000 45.3 86 42.0 43.7 0.0 NNE | 26 0.2 3.9 368 0.00 0.00 33.2 47.7 3/24/19
3/24/19 0900 38.4 100 40.7 38.5 0.0 S | 187 1.1 3.6 210 0.00 0.00 33.2 42.0 3/24/19
3/24/19 0800 33.8 100 35.0 33.8 0.0 S | 188 0.6 3.3 35 0.00 0.00 33.2 36.8 3/24/19
3/24/19 0700 33.7 100 33.3 33.7 0.0 S | 190 0.9 3.4 0 0.00 0.00 33.2 36.8 3/24/19
3/24/19 0600 34.4 100 34.4 34.4 0.0 S | 186 0.4 3.3 0 0.00 0.00 33.7 36.8 3/24/19
3/24/19 0500 34.3 100 34.6 34.3 0.0 SSW | 193 1.8 3.8 0 0.00 0.00 33.7 36.8 3/24/19
3/24/19 0400 34.4 100 34.4 34.4 0.0 SSW | 193 2.4 4.8 0 0.00 0.00 33.7 36.8 3/24/19
3/24/19 0300 34.9 100 34.9 34.9 0.0 S | 191 1.4 3.8 0 0.00 0.00 34.1 36.8 3/24/19

Bell Hill West - Daily Summary

Last 30 Days

Daily Data | America/Los_Angeles
as of 3/25/19 3:10 AM PDT
Date Daily Max Temp (°F) Max Temp Time Daily Min Temp (°F) Min Temp Time Daily Rain (In) Seasonal Rainfall (In) Wind Spd (mph) Daily Max Wind (mph) Max Wind Time Max Wind Dir (°) Dew Pt (°F) Max RH (%) Min RH (%) Daily Solar Rad (Cal/cm2) Daily ETo (in) GDDs (DL) Chill Hrs <=45 (hrs) Hrs <= 32F (hrs) Hrs <= 28F (hrs) Hrs 70-85F (hrs) Hrs > 95F (hrs) Powdery Mildew Stress (pts) Leaf Wet (hrs) Bat Volt Min Day (V)
3/24/19 61.3 1649 33.2 0653 0.00 39.31 3.2 15.5 1650 S | 177 38.7 100 44 398 0.10 2.87 8.5 0.0 0.0 0.00 0.00 0 0.8 12.07
3/23/19 57.4 1638 36.1 0101 0.00 39.31 2.9 17.3 1523 W | 270 40.8 100 46 455 0.11 1.54 8.9 0.0 0.0 0.00 0.00 0 1.1 11.95
3/22/19 49.6 1745 34.9 0255 0.38 39.31 0.3 8.4 1441 E | 91 44.6 100 91 71 0.02 0.00 9.8 0.0 0.0 0.00 0.00 0 0.2 11.96
3/21/19 61.3 1500 34.4 0555 0.00 38.93 2.5 13.6 1455 WSW | 253 38.2 100 36 494 0.12 2.26 13.2 0.0 0.0 0.00 0.00 0 1.1 12.02
3/20/19 53.9 1339 38.0 0058 0.21 38.93 3.3 18.0 1359 S | 190 44.5 100 65 274 0.06 0.55 4.9 0.0 0.0 0.00 0.00 0 1.3 12.08
3/19/19 69.6 1341 43.4 0448 0.00 38.72 3.7 15.2 1506 SSW | 212 36.4 93 21 295 0.12 6.87 2.1 0.0 0.0 0.00 0.00 0 1.0 12.08
3/18/19 74.6 1537 35.6 0735 0.00 38.72 3.4 18.8 1454 SSW | 194 40.3 100 18 493 0.15 8.08 7.8 0.0 0.0 4.60 0.00 0 0.8 12.11
3/17/19 72.5 1644 36.8 0740 0.00 38.72 2.8 11.8 1218 NE | 53 38.1 96 21 502 0.14 7.14 9.1 0.0 0.0 4.00 0.00 0 0.9 12.19
3/16/19 72.1 1625 32.8 0727 0.00 38.72 2.7 15.3 1814 WSW | 256 35.6 100 20 497 0.14 6.30 10.0 0.0 0.0 3.30 0.00 0 0.8 12.20
3/15/19 69.2 1717 31.3 0722 0.00 38.72 2.3 14.6 1750 SW | 234 33.4 98 21 499 0.13 4.86 11.2 1.8 0.0 0.00 0.00 0 0.8 12.16
3/14/19 65.6 1618 28.6 0710 0.00 38.72 1.9 9.0 1504 NNE | 21 30.9 100 15 481 0.12 4.08 12.4 5.1 0.0 0.00 0.00 0 0.8 12.18
3/13/19 59.1 1711 26.8 0730 0.00 38.72 2.5 10.5 1417 NW | 326 28.4 97 23 502 0.11 1.63 14.4 7.3 1.5 0.00 0.00 0 0.8 12.18
3/12/19 54.8 1520 31.6 0033 0.00 38.72 5.7 21.9 1413 NW | 319 32.6 99 33 448 0.11 0.94 11.6 0.2 0.0 0.00 0.00 0 1.1 12.14
3/11/19 62.8 1740 30.0 0709 0.00 38.72 1.8 13.3 1912 WSW | 258 33.2 100 25 488 0.12 3.08 13.0 4.8 0.0 0.00 0.00 0 0.8 12.08
3/10/19 51.2 1749 33.5 0053 0.01 38.72 2.1 12.5 1238 E | 82 38.7 100 60 199 0.04 0.01 16.6 0.0 0.0 0.00 0.00 0 1.3 12.07
3/9/19 47.9 1250 35.2 0122 0.83 38.71 1.2 16.0 1637 S | 172 38.0 100 69 201 0.04 0.00 23.0 0.0 0.0 0.00 0.00 0 1.3 12.11
3/8/19 50.8 1448 30.6 0635 0.00 37.88 4.6 17.7 1401 WSW | 256 30.9 96 39 419 0.09 0.01 16.8 1.4 0.0 0.00 0.00 0 1.1 12.06
3/7/19 50.3 1428 40.0 0707 0.01 37.88 4.8 16.7 1420 WSW | 249 37.4 92 48 353 0.08 0.00 15.7 0.0 0.0 0.00 0.00 0 1.1 11.98
3/6/19 53.9 1101 43.3 2130 0.50 37.87 4.6 25.4 0003 S | 184 46.3 100 76 235 0.05 0.50 1.7 0.0 0.0 0.00 0.00 0 1.2 11.83
3/5/19 51.3 2358 44.1 0040 0.42 37.37 2.3 25.9 2337 S | 189 45.1 100 82 78 0.02 0.07 3.4 0.0 0.0 0.00 0.00 0 0.3 11.87
3/4/19 54.1 1430 44.5 2359 0.00 36.95 1.9 9.6 1312 SW | 226 42.6 93 62 206 0.05 0.54 0.4 0.0 0.0 0.00 0.00 0 0.9 12.07
3/3/19 56.9 1106 44.8 2003 0.05 36.95 1.5 11.6 1451 SW | 223 47.4 100 73 219 0.05 1.19 0.2 0.0 0.0 0.00 0.00 0 1.1 11.84
3/2/19 54.0 1543 43.6 0704 0.19 36.90 1.6 11.6 1051 ESE | 102 44.8 96 73 174 0.04 0.75 6.2 0.0 0.0 0.00 0.00 0 0.6 11.91
3/1/19 51.4 1433 37.8 0714 0.07 36.71 0.6 9.0 1952 E | 96 38.8 96 53 183 0.04 0.10 10.2 0.0 0.0 0.00 0.00 0 0.4 11.98
2/28/19 52.0 1550 32.4 0715 0.00 36.64 1.5 16.3 1339 WNW | 296 35.1 100 43 399 0.08 0.10 16.1 0.0 0.0 0.00 0.00 0 1.0 11.83
2/27/19 54.2 1304 39.0 2328 0.58 36.64 6.2 23.5 1354 SW | 220 44.4 94 65 240 0.06 0.66 4.8 0.0 0.0 0.00 0.00 0 1.1 11.84
2/26/19 52.5 1328 48.8 2042 3.47 36.06 8.7 28.9 1447 S | 179 48.0 100 87 102 0.03 0.38 0.0 0.0 0.0 0.00 0.00 0 0.6 11.87
2/25/19 50.2 2310 44.0 0238 2.53 32.59 7.0 25.7 1455 S | 173 45.1 99 88 71 0.02 0.00 4.4 0.0 0.0 0.00 0.00 0 0.3 11.91
2/24/19 48.3 1325 39.8 0533 0.00 30.06 1.6 14.5 1125 SSW | 200 40.7 100 73 132 0.03 0.00 15.0 0.0 0.0 0.00 0.00 0 0.4 12.02
2/23/19 54.5 1414 27.2 0536 0.00 30.06 1.9 10.1 1641 SSW | 200 30.5 94 36 240 0.06 0.46 14.4 7.8 1.9 0.00 0.00 0 0.9 12.07

Bell Hill West Climate Summary

Current Yeaer

Current Year | Showing 1/1/19 - 3/24/19
as of 3/25/19 3:10 AM PDT
Temperature (°F) Precip (in) Days
Month Days Avg Max Avg Min Max Max Min Min Total Daily Min Temp < 28 Daily Min Temp < 32 Daily Max Temp > 90 Daily Max Temp > 100 Daily Rain > 0.01 Daily Rain > 0.1
Jan 2019 31 56.8 36.2 71.5 24.5 10.09 3 8 0 0 12 11
Feb 2019 28 49.5 33.4 56.5 21.5 17.41 10 14 0 0 17 14
Mar 2019 24 58.6 36.3 74.6 26.8 2.67 1 6 0 0 8 6
Total 83 - - - - 30.17 14 28 0 0 37 31
Average 27.7 55 35.3 - - 10.06 4.7 9.3 0 0 12.3 10.3
Maximum 31 58.6 36.3 74.6 - 17.41 10 14 0 0 17 14
Minimum 24 49.5 33.4 - 21.5 2.67 1 6 0 0 8 6

Bell Hill West Climate Summary

Last Year

Last Year | Showing 1/1/18 - 12/31/18
as of 3/25/19 3:10 AM PDT
Temperature (°F) Precip (in) Days
Month Days Avg Max Avg Min Max Max Min Min Total Daily Min Temp < 28 Daily Min Temp < 32 Daily Max Temp > 90 Daily Max Temp > 100 Daily Rain > 0.01 Daily Rain > 0.1
Jan 2018 31 55.8 33.2 68.2 -40 6.62 3 10 0 0 15 9
Feb 2018 28 62 28.9 78.8 19.4 0.75 15 17 0 0 3 2
Mar 2018 31 59.9 34.1 82.6 23.8 6.24 5 11 0 0 16 13
Apr 2018 30 67.3 37.4 82.3 -40 3.01 1 2 0 0 7 7
May 2018 31 75.9 42.6 92.8 -40 0.12 1 1 1 0 2 0
Jun 2018 30 85.9 49.2 99.3 38.4 0 0 0 8 0 0 0
Jul 2018 31 93.9 56.5 103 47.8 0 0 0 24 4 0 0
Aug 2018 31 90.1 49.1 98 -40 0 1 1 16 0 0 0
Sep 2018 29 86.4 46.3 97.2 40.1 0.08 0 0 14 0 1 0
Oct 2018 31 77 42.1 86.4 32.4 1.04 0 0 0 0 4 2
Nov 2018 30 66 33.9 81.6 23.6 4.82 9 14 0 0 7 7
Dec 2018 31 54.8 33.2 62.3 25.4 3.2 2 15 0 0 11 5
Total 364 - - - - 25.88 37 71 63 4 66 45
Average 30.3 72.9 40.5 - - 2.16 3.1 5.9 5.2 0.3 5.5 3.8
Maximum 31 93.9 56.5 103 - 6.62 15 17 24 4 16 13
Minimum 28 54.8 28.9 - -40 0 0 0 0 0 0 0
Calm: 7.2%
Calm: 10.4%